Time;durP1;ratioP1;P1;durP2;ratioP2;P2;SDS_P1;SDS_P2;PMS_P1;PMS_P2;Temp;Humidity;BMP_temperature;BMP_pressure;BME280_temperature;BME280_humidity;BME280_pressure;Samples;Min_cycle;Max_cycle;Signal;HPM_P1;HPM_P2
2021/01/27 00:04:34;;;;;;;7.00;4.13;;;;;;;;;;10257088;28;20256;-78
2021/01/27 00:09:36;;;;;;;7.17;3.80;;;;;;;;;;10245524;28;20226;-78
2021/01/27 00:14:38;;;;;;;10.30;4.03;;;;;;;;;;10246967;28;20227;-77
2021/01/27 00:19:40;;;;;;;5.37;3.53;;;;;;;;;;10251458;28;20261;-77
2021/01/27 00:24:42;;;;;;;6.07;3.60;;;;;;;;;;10246046;28;20238;-76
2021/01/27 00:29:44;;;;;;;5.77;3.33;;;;;;;;;;10248619;28;20238;-77
2021/01/27 00:34:46;;;;;;;6.80;3.60;;;;;;;;;;10249069;28;20224;-76
2021/01/27 00:39:48;;;;;;;6.03;3.73;;;;;;;;;;10246611;28;20230;-78
2021/01/27 00:44:51;;;;;;;6.17;3.50;;;;;;;;;;10248572;28;20517;-79
2021/01/27 00:50:02;;;;;;;5.30;3.40;;;;;;;;;;10253787;28;20214;-77
2021/01/27 00:55:09;;;;;;;6.00;3.73;;;;;;;;;;10247610;28;20210;-77
2021/01/27 01:00:15;;;;;;;6.60;3.93;;;;;;;;;;10253355;28;20226;-76
2021/01/27 01:05:18;;;;;;;5.33;3.90;;;;;;;;;;10242523;28;20618;-76
2021/01/27 01:10:21;;;;;;;6.77;4.10;;;;;;;;;;10245227;28;20593;-77
2021/01/27 01:15:25;;;;;;;6.60;4.23;;;;;;;;;;10250024;28;20249;-77
2021/01/27 01:20:26;;;;;;;6.03;3.60;;;;;;;;;;10251946;28;20222;-78
2021/01/27 01:25:29;;;;;;;7.27;4.30;;;;;;;;;;10242946;28;20249;-78
2021/01/27 01:30:33;;;;;;;8.47;4.40;;;;;;;;;;10249638;28;20641;-78
2021/01/27 01:35:35;;;;;;;9.60;3.97;;;;;;;;;;10245570;28;20231;-77
2021/01/27 01:40:39;;;;;;;7.60;4.30;;;;;;;;;;10236942;28;20600;-79
2021/01/27 01:45:43;;;;;;;7.60;4.07;;;;;;;;;;10240143;28;20267;-78
2021/01/27 01:50:45;;;;;;;7.60;4.30;;;;;;;;;;10239802;28;20589;-77
2021/01/27 01:55:48;;;;;;;6.20;4.27;;;;;;;;;;10245139;28;20214;-79
2021/01/27 02:00:52;;;;;;;8.30;3.93;;;;;;;;;;10242632;28;20210;-77
2021/01/27 02:05:54;;;;;;;5.83;4.17;;;;;;;;;;10246174;28;20707;-77
2021/01/27 02:10:56;;;;;;;6.73;4.23;;;;;;;;;;10247159;28;20226;-79
2021/01/27 02:16:04;;;;;;;6.60;4.40;;;;;;;;;;10257137;28;20225;-78
2021/01/27 02:21:24;;;;;;;6.90;4.20;;;;;;;;;;10249440;28;20222;-78
2021/01/27 02:26:37;;;;;;;8.73;4.40;;;;;;;;;;10246708;28;20240;-78
2021/01/27 02:31:42;;;;;;;6.43;4.40;;;;;;;;;;10246696;28;20214;-76
2021/01/27 02:36:59;;;;;;;4.83;4.00;;;;;;;;;;10247852;28;20237;-78
2021/01/27 02:42:04;;;;;;;6.20;4.00;;;;;;;;;;10247679;28;20219;-78
2021/01/27 02:47:09;;;;;;;6.37;3.80;;;;;;;;;;10249421;28;20243;-77
2021/01/27 02:52:13;;;;;;;7.07;3.70;;;;;;;;;;10250757;28;20237;-79
2021/01/27 02:57:17;;;;;;;5.47;3.60;;;;;;;;;;10248821;28;20672;-77
2021/01/27 03:02:21;;;;;;;8.70;3.67;;;;;;;;;;10250336;28;20253;-79
2021/01/27 03:07:25;;;;;;;6.97;3.77;;;;;;;;;;10246624;28;20243;-78
2021/01/27 03:12:27;;;;;;;5.83;3.37;;;;;;;;;;10252285;28;20214;-79
2021/01/27 03:17:30;;;;;;;4.50;2.90;;;;;;;;;;10246230;28;20214;-78
2021/01/27 03:22:39;;;;;;;5.10;3.33;;;;;;;;;;10252906;28;20218;-78
2021/01/27 03:27:44;;;;;;;5.17;3.30;;;;;;;;;;10239615;28;20239;-77
2021/01/27 03:32:49;;;;;;;5.70;3.33;;;;;;;;;;10247022;28;20214;-78
2021/01/27 03:37:54;;;;;;;4.17;2.70;;;;;;;;;;10250296;28;20308;-77
2021/01/27 03:42:59;;;;;;;6.57;3.40;;;;;;;;;;10248984;28;20218;-78
2021/01/27 03:48:04;;;;;;;5.20;3.13;;;;;;;;;;10248265;28;20242;-78
2021/01/27 03:53:08;;;;;;;5.77;3.10;;;;;;;;;;10252872;28;20265;-78
2021/01/27 03:58:14;;;;;;;5.87;3.20;;;;;;;;;;10247439;28;20215;-77
2021/01/27 04:03:16;;;;;;;5.10;2.67;;;;;;;;;;10245031;28;20227;-77
2021/01/27 04:08:19;;;;;;;3.93;2.90;;;;;;;;;;10249222;28;20711;-78
2021/01/27 04:13:22;;;;;;;4.20;2.60;;;;;;;;;;10244381;28;20222;-78
2021/01/27 04:18:24;;;;;;;5.40;2.77;;;;;;;;;;10251105;28;21070;-77
2021/01/27 04:23:26;;;;;;;3.37;2.63;;;;;;;;;;10245617;28;20214;-77
2021/01/27 04:28:28;;;;;;;4.10;2.70;;;;;;;;;;10246207;28;20250;-78
2021/01/27 04:33:30;;;;;;;3.73;2.57;;;;;;;;;;10246181;28;20414;-77
2021/01/27 04:38:33;;;;;;;4.90;3.07;;;;;;;;;;10242770;28;20684;-78
2021/01/27 04:43:36;;;;;;;4.30;2.63;;;;;;;;;;10244754;28;20218;-78
2021/01/27 04:48:43;;;;;;;2.83;2.43;;;;;;;;;;10256498;28;20320;-76
2021/01/27 04:54:01;;;;;;;4.37;2.80;;;;;;;;;;10255865;28;20262;-77
2021/01/27 04:59:08;;;;;;;5.07;2.87;;;;;;;;;;10252045;28;20224;-77
2021/01/27 05:04:17;;;;;;;3.83;2.57;;;;;;;;;;10251319;28;20249;-78
2021/01/27 05:09:29;;;;;;;2.87;2.57;;;;;;;;;;10252965;28;20226;-79
2021/01/27 05:14:31;;;;;;;3.50;2.53;;;;;;;;;;10245439;28;20222;-77
2021/01/27 05:19:33;;;;;;;3.60;2.63;;;;;;;;;;10251618;28;20259;-77
2021/01/27 05:24:36;;;;;;;5.17;2.70;;;;;;;;;;10242738;28;20230;-77
2021/01/27 05:29:41;;;;;;;5.30;2.77;;;;;;;;;;10246574;28;20684;-77
2021/01/27 05:34:43;;;;;;;3.37;2.60;;;;;;;;;;10246324;28;20225;-78
2021/01/27 05:39:47;;;;;;;3.83;2.63;;;;;;;;;;10246709;28;20225;-77
2021/01/27 05:44:51;;;;;;;3.30;2.67;;;;;;;;;;10240094;28;20246;-78
2021/01/27 05:49:53;;;;;;;3.57;2.87;;;;;;;;;;10246837;28;20225;-79
2021/01/27 05:55:06;;;;;;;3.60;2.60;;;;;;;;;;10237690;28;20234;-78
2021/01/27 06:00:12;;;;;;;3.63;2.60;;;;;;;;;;10248723;28;20219;-78
2021/01/27 06:05:15;;;;;;;3.13;2.50;;;;;;;;;;10248837;28;20274;-79
2021/01/27 06:10:30;;;;;;;4.20;2.50;;;;;;;;;;10247551;28;20218;-78
2021/01/27 06:15:31;;;;;;;3.90;2.70;;;;;;;;;;10243318;28;20680;-79
2021/01/27 06:20:35;;;;;;;2.67;2.07;;;;;;;;;;10244510;28;20214;-77
2021/01/27 06:25:45;;;;;;;2.40;2.20;;;;;;;;;;10241433;28;20718;-78
2021/01/27 06:30:52;;;;;;;3.50;2.30;;;;;;;;;;10244919;28;20222;-77
2021/01/27 06:36:14;;;;;;;2.80;2.40;;;;;;;;;;10243615;28;20214;-78
2021/01/27 06:41:21;;;;;;;3.27;2.27;;;;;;;;;;10244117;28;20218;-77
2021/01/27 06:46:47;;;;;;;3.20;2.47;;;;;;;;;;10250507;28;20234;-78
2021/01/27 06:52:06;;;;;;;3.00;2.10;;;;;;;;;;10237739;28;20222;-77
2021/01/27 06:57:20;;;;;;;2.47;1.83;;;;;;;;;;10249827;28;20745;-76
2021/01/27 07:02:37;;;;;;;3.10;2.13;;;;;;;;;;10246821;28;20230;-78
2021/01/27 07:07:47;;;;;;;5.80;2.40;;;;;;;;;;10231505;28;20261;-76
2021/01/27 07:12:52;;;;;;;2.27;2.00;;;;;;;;;;10251257;28;20222;-77
2021/01/27 07:18:09;;;;;;;2.57;2.03;;;;;;;;;;10251828;28;20222;-76
2021/01/27 07:23:13;;;;;;;2.53;2.20;;;;;;;;;;10249656;28;20230;-78
2021/01/27 07:28:19;;;;;;;2.20;2.00;;;;;;;;;;10248786;28;21072;-77
2021/01/27 07:33:24;;;;;;;3.77;2.23;;;;;;;;;;10245487;28;20593;-76
2021/01/27 07:38:28;;;;;;;2.73;2.43;;;;;;;;;;10227640;28;20285;-76
2021/01/27 07:43:34;;;;;;;2.50;2.30;;;;;;;;;;10246081;28;20264;-76
2021/01/27 07:48:39;;;;;;;4.30;2.43;;;;;;;;;;10248253;28;20339;-78
2021/01/27 07:53:45;;;;;;;3.43;2.87;;;;;;;;;;10245083;28;20253;-77
2021/01/27 07:58:50;;;;;;;5.40;2.93;;;;;;;;;;10248505;28;20591;-77
2021/01/27 08:03:57;;;;;;;4.70;3.00;;;;;;;;;;10245742;28;20246;-78
2021/01/27 08:09:02;;;;;;;5.60;3.20;;;;;;;;;;10249887;28;20754;-77
2021/01/27 08:14:07;;;;;;;3.53;3.10;;;;;;;;;;10238681;28;20207;-78
2021/01/27 08:19:23;;;;;;;4.50;3.57;;;;;;;;;;10252901;28;20222;-78
2021/01/27 08:24:46;;;;;;;4.73;3.40;;;;;;;;;;10240904;28;20864;-77
2021/01/27 08:30:04;;;;;;;6.40;4.10;;;;;;;;;;10244233;28;20241;-79
2021/01/27 08:35:08;;;;;;;4.80;3.70;;;;;;;;;;10249931;28;20308;-77
2021/01/27 08:40:13;;;;;;;5.07;3.77;;;;;;;;;;10244458;28;20708;-77
2021/01/27 08:45:26;;;;;;;4.23;3.83;;;;;;;;;;10249176;28;20245;-78
2021/01/27 08:50:37;;;;;;;4.87;3.80;;;;;;;;;;10245506;28;20214;-78
2021/01/27 08:55:57;;;;;;;5.30;4.20;;;;;;;;;;10243677;28;21269;-78
2021/01/27 09:01:01;;;;;;;4.90;4.33;;;;;;;;;;10248479;28;20313;-79
2021/01/27 09:06:04;;;;;;;5.83;4.07;;;;;;;;;;10248648;28;20238;-78
2021/01/27 09:11:07;;;;;;;5.03;4.20;;;;;;;;;;10248102;28;20936;-79
2021/01/27 09:16:12;;;;;;;5.07;4.30;;;;;;;;;;10245037;28;20219;-79
2021/01/27 09:21:16;;;;;;;5.10;4.20;;;;;;;;;;10249101;28;20225;-83
2021/01/27 09:26:19;;;;;;;5.93;4.60;;;;;;;;;;10235563;28;20242;-76
2021/01/27 09:31:23;;;;;;;8.93;4.73;;;;;;;;;;10246629;28;20210;-79
2021/01/27 09:36:27;;;;;;;5.70;4.90;;;;;;;;;;10240350;28;20224;-77
2021/01/27 09:41:32;;;;;;;6.37;4.90;;;;;;;;;;10242823;28;20309;-77
2021/01/27 09:46:35;;;;;;;5.93;5.00;;;;;;;;;;10244296;28;20263;-77
2021/01/27 09:51:40;;;;;;;5.30;4.50;;;;;;;;;;10244808;28;20639;-78
2021/01/27 09:56:42;;;;;;;6.87;4.83;;;;;;;;;;10243183;28;21621;-77
2021/01/27 10:01:44;;;;;;;7.03;4.90;;;;;;;;;;10245134;28;20995;-77
2021/01/27 10:06:49;;;;;;;6.47;5.03;;;;;;;;;;10239946;28;20952;-77
2021/01/27 10:11:58;;;;;;;8.70;5.53;;;;;;;;;;10244558;28;20225;-78
2021/01/27 10:17:01;;;;;;;6.97;5.70;;;;;;;;;;10243390;28;20289;-79
2021/01/27 10:22:05;;;;;;;7.93;5.77;;;;;;;;;;10244573;28;20627;-80
2021/01/27 10:27:07;;;;;;;9.37;6.40;;;;;;;;;;10243497;28;20286;-79
2021/01/27 10:32:24;;;;;;;7.63;5.70;;;;;;;;;;10248388;28;20215;-76
2021/01/27 10:37:35;;;;;;;7.60;6.40;;;;;;;;;;10248548;28;21053;-83
2021/01/27 10:42:38;;;;;;;8.47;7.07;;;;;;;;;;10251177;28;20594;-78
2021/01/27 10:47:41;;;;;;;10.10;7.20;;;;;;;;;;10250885;28;20610;-80
2021/01/27 10:52:44;;;;;;;11.23;7.43;;;;;;;;;;10257781;28;20346;-77
2021/01/27 10:57:46;;;;;;;15.90;10.80;;;;;;;;;;10253777;28;20210;-84
2021/01/27 11:02:47;;;;;;;13.87;9.30;;;;;;;;;;10261581;28;20234;-91
2021/01/27 11:07:50;;;;;;;15.27;9.37;;;;;;;;;;10259782;28;20241;-89
2021/01/27 11:12:52;;;;;;;12.83;8.70;;;;;;;;;;10272677;28;20230;-92
2021/01/27 11:17:54;;;;;;;14.40;9.37;;;;;;;;;;10270447;28;20666;-87
2021/01/27 11:22:57;;;;;;;14.13;9.30;;;;;;;;;;10249817;28;20500;-85
2021/01/27 11:27:59;;;;;;;12.53;9.50;;;;;;;;;;10244377;28;20740;-86
2021/01/27 11:33:01;;;;;;;12.97;9.77;;;;;;;;;;10254616;28;20214;-87
2021/01/27 11:38:04;;;;;;;13.30;8.80;;;;;;;;;;10260376;28;20206;-88
2021/01/27 11:43:06;;;;;;;12.63;9.70;;;;;;;;;;10258070;28;20219;-89
2021/01/27 11:48:07;;;;;;;15.03;9.37;;;;;;;;;;10257946;28;20662;-89
2021/01/27 11:53:10;;;;;;;12.63;8.97;;;;;;;;;;10259612;28;20219;-87
2021/01/27 11:58:12;;;;;;;11.70;8.63;;;;;;;;;;10256788;28;20230;-88
2021/01/27 12:03:15;;;;;;;12.60;8.67;;;;;;;;;;10265822;28;20230;-88
2021/01/27 12:08:18;;;;;;;12.93;8.67;;;;;;;;;;10282501;28;20798;-89
2021/01/27 12:13:20;;;;;;;11.20;8.33;;;;;;;;;;10255676;28;20214;-87
2021/01/27 12:18:24;;;;;;;15.27;9.00;;;;;;;;;;10246786;28;20214;-83
2021/01/27 12:23:31;;;;;;;11.53;8.70;;;;;;;;;;10251310;28;20218;-90
2021/01/27 12:28:33;;;;;;;13.93;9.23;;;;;;;;;;10243635;28;20238;-86
2021/01/27 12:33:35;;;;;;;15.13;9.03;;;;;;;;;;10255934;28;20210;-92
2021/01/27 12:38:39;;;;;;;15.37;9.20;;;;;;;;;;10260666;28;20211;-89
2021/01/27 12:43:41;;;;;;;13.50;9.27;;;;;;;;;;10245306;28;21101;-81
2021/01/27 12:48:44;;;;;;;12.97;9.13;;;;;;;;;;10244250;28;20719;-84
2021/01/27 12:53:53;;;;;;;16.40;9.40;;;;;;;;;;10223237;28;20245;-80
2021/01/27 12:58:55;;;;;;;20.17;8.90;;;;;;;;;;10240385;28;20218;-82
2021/01/27 13:03:59;;;;;;;15.83;9.70;;;;;;;;;;10242310;28;20238;-81
2021/01/27 13:09:02;;;;;;;12.77;8.73;;;;;;;;;;10240640;28;20283;-80
2021/01/27 13:14:07;;;;;;;13.37;8.97;;;;;;;;;;10243406;28;20648;-82
2021/01/27 13:19:09;;;;;;;13.13;8.60;;;;;;;;;;10247509;28;20219;-81
2021/01/27 19:50:57;;;;;;;38.90;14.63;;;;;;;;;;10241372;28;20230;-84
2021/01/27 19:55:59;;;;;;;34.57;13.73;;;;;;;;;;10242510;28;20244;-84
2021/01/27 20:01:01;;;;;;;30.67;13.97;;;;;;;;;;10241245;28;20223;-84
2021/01/27 20:06:04;;;;;;;33.77;13.50;;;;;;;;;;10243020;28;20625;-85
2021/01/27 20:11:07;;;;;;;32.10;14.00;;;;;;;;;;10243821;28;20497;-86
2021/01/27 20:16:09;;;;;;;35.57;14.30;;;;;;;;;;10249803;28;20227;-86
2021/01/27 20:21:12;;;;;;;34.43;14.03;;;;;;;;;;10240043;28;20254;-85
2021/01/27 20:26:14;;;;;;;36.83;14.43;;;;;;;;;;10240364;28;20245;-84
2021/01/27 20:31:16;;;;;;;36.27;14.13;;;;;;;;;;10242792;28;20234;-84
2021/01/27 20:36:20;;;;;;;37.80;15.33;;;;;;;;;;10244274;28;20225;-85
2021/01/27 20:41:22;;;;;;;38.33;14.80;;;;;;;;;;10237627;28;20214;-79
2021/01/27 20:46:24;;;;;;;36.30;15.23;;;;;;;;;;10245848;28;20243;-79
2021/01/27 20:51:27;;;;;;;38.23;14.77;;;;;;;;;;10246646;28;20233;-77
2021/01/27 20:56:29;;;;;;;32.50;14.37;;;;;;;;;;10248720;28;20223;-78
2021/01/27 21:01:31;;;;;;;32.00;15.10;;;;;;;;;;10241798;28;20242;-78
2021/01/27 21:06:34;;;;;;;37.27;15.97;;;;;;;;;;10251248;28;20235;-78
2021/01/27 21:11:36;;;;;;;41.47;16.27;;;;;;;;;;10242310;28;20276;-79
2021/01/27 21:16:38;;;;;;;37.27;15.77;;;;;;;;;;10238140;28;20574;-78
2021/01/27 21:21:42;;;;;;;37.07;14.87;;;;;;;;;;10244072;28;20703;-78
2021/01/27 21:26:44;;;;;;;42.10;14.23;;;;;;;;;;10237765;28;20263;-78
2021/01/27 21:31:46;;;;;;;35.43;13.47;;;;;;;;;;10244250;28;20345;-78
2021/01/27 21:36:49;;;;;;;30.13;12.87;;;;;;;;;;10245158;28;21010;-79
2021/01/27 21:41:51;;;;;;;32.03;12.70;;;;;;;;;;10241003;28;20218;-78
2021/01/27 21:46:53;;;;;;;34.63;12.50;;;;;;;;;;10244141;28;20238;-79
2021/01/27 21:51:56;;;;;;;34.33;13.17;;;;;;;;;;10240649;28;20214;-78
2021/01/27 21:56:58;;;;;;;33.70;12.57;;;;;;;;;;10242852;28;20219;-77
2021/01/27 22:02:00;;;;;;;33.67;12.83;;;;;;;;;;10239452;28;20688;-79
2021/01/27 22:07:03;;;;;;;32.13;12.60;;;;;;;;;;10248307;28;20281;-79
2021/01/27 22:12:06;;;;;;;34.37;12.17;;;;;;;;;;10240878;28;20226;-79
2021/01/27 22:17:08;;;;;;;30.27;12.60;;;;;;;;;;10244820;28;20326;-79
2021/01/27 22:22:11;;;;;;;38.13;12.60;;;;;;;;;;10243796;28;20250;-79
2021/01/27 22:27:13;;;;;;;33.63;12.30;;;;;;;;;;10250105;28;20242;-78
2021/01/27 22:32:15;;;;;;;31.90;12.47;;;;;;;;;;10249984;28;20226;-79
2021/01/27 22:37:19;;;;;;;30.03;11.23;;;;;;;;;;10251321;28;20594;-78
2021/01/27 22:42:21;;;;;;;30.33;11.80;;;;;;;;;;10246002;28;20231;-78
2021/01/27 22:47:23;;;;;;;30.63;12.33;;;;;;;;;;10248878;28;20234;-78
2021/01/27 22:52:26;;;;;;;29.23;12.07;;;;;;;;;;10251468;28;20222;-78
2021/01/27 22:57:28;;;;;;;30.23;11.40;;;;;;;;;;10252420;28;20207;-78
2021/01/27 23:02:30;;;;;;;28.47;11.27;;;;;;;;;;10249953;28;20355;-78
2021/01/27 23:07:33;;;;;;;30.33;11.77;;;;;;;;;;10251116;28;20250;-78
2021/01/27 23:12:35;;;;;;;32.53;11.67;;;;;;;;;;10254434;28;20704;-78
2021/01/27 23:17:40;;;;;;;33.80;13.03;;;;;;;;;;10252540;28;20226;-78
2021/01/27 23:22:43;;;;;;;31.17;12.27;;;;;;;;;;10248183;28;20299;-77
2021/01/27 23:27:46;;;;;;;34.33;12.43;;;;;;;;;;10251558;28;20243;-78
2021/01/27 23:32:48;;;;;;;29.13;12.43;;;;;;;;;;10261213;28;20700;-78
2021/01/27 23:37:51;;;;;;;34.27;13.30;;;;;;;;;;10256034;28;20226;-78
2021/01/27 23:42:53;;;;;;;30.47;12.83;;;;;;;;;;10243336;28;20222;-78
2021/01/27 23:47:56;;;;;;;32.40;12.67;;;;;;;;;;10250219;28;20273;-77
2021/01/27 23:52:59;;;;;;;35.27;13.07;;;;;;;;;;10247198;28;20238;-77
2021/01/27 23:58:02;;;;;;;35.57;11.90;;;;;;;;;;10250486;28;20230;-78
